Tapoco, North Carolina
Current Conditions -  °F | °C
As of 1:15 AM on Monday 26 Jan 2015 (Local Time) from KRHP Reporting Station
Moderate Rain Moderate Rain  
Wind Chill: 39°   Ceiling: 2200
Heat Index: 42°   Visibility: 7mi
Dew Point: 40°   Wind: 5mph
Humidity: 92%   Direction: 260°W
Pressure: 29.68"   Gusts: NA
Location:  35.3435°N, 83.8508°W
Report Text: KRHP 260615Z AUTO 26004KT 7SM RA OVC022 06/05 A2968 RMK AO2 T00570045
Loading
Personal Weather Stations






























Interactive Weather Map New forecast layout! Learn more

10-Day Weather Forecast

Advertisements
Track Severe Weather on mobile